April Moran — WDJ2163 — position and weather

sailwx.info

Track history (hours):
 
Tides and Currents Weather Stations Pressure Air Temp Water Temp Dewpoint Dewpoint Depression Visibility Wind Speed Wind Dir Waves Ship Positions

April Moran

Owner: Moran Towing Corporation, New Canaan, CT. More information available from US FCC via Universal Licensing System and Coast Guard Vessel Documentation Center.

Last reported at 2018-Apr-23 03:30 UTC. Time now 2018-Apr-23 03:41 UTC.
Position N 39°16' W 076°34'.

Length 29 m; draft 3.9 m.

Type: Tug. MMSI: 367139510.

Date/timePositionNaut miles runAvg speedWind from/ knotsBaromVisibWave heightAir tempDewpointWater temp
2018-Apr-23 03:30N 39°16' W 076°34'0 0.0
2018-Apr-23 03:00N 39°16' W 076°34'0 0.0
2018-Apr-23 02:30N 39°16' W 076°34'0 0.0
2018-Apr-23 02:00N 39°16' W 076°34'0 0.0
2018-Apr-23 01:30N 39°16' W 076°34'0 0.0
2018-Apr-23 01:00N 39°16' W 076°34'0 0.0
2018-Apr-23 00:30N 39°16' W 076°34'0 0.0
2018-Apr-23 00:00N 39°16' W 076°34'0 0.0
2018-Apr-22 23:30N 39°16' W 076°34'2 4.2
2018-Apr-22 23:00N 39°15' W 076°32'2 3.8
2018-Apr-22 22:30N 39°16' W 076°34'0 0.6
2018-Apr-22 22:00N 39°16' W 076°34'0 0.0
2018-Apr-22 21:30N 39°16' W 076°34'0 0.0
2018-Apr-22 21:00N 39°16' W 076°34'0 0.0
2018-Apr-22 20:30N 39°16' W 076°34'0 0.0
2018-Apr-22 20:00N 39°16' W 076°34'0 0.0
2018-Apr-22 19:30N 39°16' W 076°34'0 0.0
2018-Apr-22 19:00N 39°16' W 076°34'0 0.0
2018-Apr-22 18:30N 39°16' W 076°34'0 0.0
2018-Apr-22 18:00N 39°16' W 076°34'0 0.0
2018-Apr-22 17:30N 39°16' W 076°34'0 0.0
2018-Apr-22 17:00N 39°16' W 076°34'0 0.0
2018-Apr-22 16:30N 39°16' W 076°34'0 0.0
2018-Apr-22 16:00N 39°16' W 076°34'0 0.0
2018-Apr-22 15:30N 39°16' W 076°34'0 0.0
2018-Apr-22 15:00N 39°16' W 076°34'2 3.1
2018-Apr-22 14:30N 39°15' W 076°33'1 2.0
2018-Apr-22 14:00N 39°15' W 076°32'0 0.8
2018-Apr-22 13:30N 39°15' W 076°32'0 0.0
2018-Apr-22 13:00N 39°15' W 076°32'0 0.0
2018-Apr-22 12:30N 39°15' W 076°32'0 0.0
2018-Apr-22 12:00N 39°15' W 076°32'0 0.0
2018-Apr-22 11:30N 39°15' W 076°32'0 0.0
2018-Apr-22 11:00N 39°15' W 076°32'1 1.4
2018-Apr-22 10:30N 39°15' W 076°31'1 1.9
2018-Apr-22 10:00N 39°14' W 076°32'1 2.6
2018-Apr-22 09:30N 39°15' W 076°34'1 2.3
2018-Apr-22 08:59N 39°15' W 076°33'0 0.6
2018-Apr-22 08:30N 39°15' W 076°32'1 3.0
2018-Apr-22 08:00N 39°13' W 076°32'0 0.7
2018-Apr-22 07:30N 39°14' W 076°32'1 2.0
2018-Apr-22 07:00N 39°15' W 076°33'0 0.9
2018-Apr-22 06:30N 39°14' W 076°32'0 0.0
2018-Apr-22 06:00N 39°14' W 076°32'0 0.0
2018-Apr-22 05:30N 39°14' W 076°32'0 0.0
2018-Apr-22 05:00N 39°14' W 076°32'0 0.0
2018-Apr-22 04:30N 39°14' W 076°32'0 0.0
2018-Apr-22 04:00N 39°14' W 076°32'0 0.0
2018-Apr-22 03:30N 39°14' W 076°32'0 0.0
2018-Apr-22 03:00N 39°14' W 076°32'2 3.2
2018-Apr-22 02:30N 39°13' W 076°32'1 1.1
2018-Apr-22 02:00N 39°13' W 076°32'3 5.5
2018-Apr-22 01:30N 39°15' W 076°34'0 0.2
2018-Apr-22 01:00N 39°15' W 076°34'0 0.0
2018-Apr-22 00:30N 39°15' W 076°34'1 2.9
2018-Apr-22 00:00N 39°16' W 076°36'0 1.0
2018-Apr-21 23:30N 39°15' W 076°35'2 4.4
2018-Apr-21 23:00N 39°14' W 076°33'0 0.7
2018-Apr-21 22:30N 39°15' W 076°32'0 0.0
2018-Apr-21 22:00N 39°15' W 076°32'0 0.0
2018-Apr-21 21:30N 39°15' W 076°32'0 0.0
2018-Apr-21 21:00N 39°15' W 076°32'0 0.3
2018-Apr-21 20:30N 39°15' W 076°32'0 0.8
2018-Apr-21 20:00N 39°15' W 076°32'2 3.5
2018-Apr-21 19:30N 39°16' W 076°34'0 0.0
2018-Apr-21 19:01N 39°16' W 076°34'0 0.0
2018-Apr-21 18:30N 39°16' W 076°34'0 0.0
2018-Apr-21 18:00N 39°16' W 076°34'0 0.0
2018-Apr-21 17:30N 39°16' W 076°34'0 0.0
2018-Apr-21 17:00N 39°16' W 076°34'0 0.0
2018-Apr-21 16:30N 39°16' W 076°34'0 0.0
2018-Apr-21 16:00N 39°16' W 076°34'0 0.0
2018-Apr-21 15:30N 39°16' W 076°34'0 0.0
2018-Apr-21 15:00N 39°16' W 076°34'0 0.0
2018-Apr-21 14:30N 39°16' W 076°34'0 0.0
2018-Apr-21 14:01N 39°16' W 076°34'0 0.0
2018-Apr-21 13:30N 39°16' W 076°34'0 0.0
2018-Apr-21 13:00N 39°16' W 076°34'0 0.0
2018-Apr-21 12:31N 39°16' W 076°34'0 0.0
2018-Apr-21 12:00N 39°16' W 076°34'0 0.0
2018-Apr-21 11:30N 39°16' W 076°34'0 0.0
2018-Apr-21 11:00N 39°16' W 076°34'0 0.0
2018-Apr-21 10:30N 39°16' W 076°34'1 1.1
2018-Apr-21 10:01N 39°15' W 076°34'0 0.3
2018-Apr-21 09:31N 39°15' W 076°34'0 0.3
2018-Apr-21 09:01N 39°15' W 076°34'0 0.0
2018-Apr-21 08:31N 39°15' W 076°34'0 0.0
2018-Apr-21 08:01N 39°15' W 076°34'0 0.0
2018-Apr-21 07:31N 39°15' W 076°34'0 0.0
2018-Apr-21 07:01N 39°15' W 076°34'0 0.9
2018-Apr-21 06:31N 39°15' W 076°34'1 1.3
2018-Apr-21 06:00N 39°15' W 076°33'1 2.6
2018-Apr-21 05:31N 39°16' W 076°34'0 0.0
2018-Apr-21 05:01N 39°16' W 076°34'0 0.0
2018-Apr-21 04:30N 39°16' W 076°34'0 0.0
2018-Apr-21 04:00N 39°16' W 076°34'0 0.0
2018-Apr-21 03:31N 39°16' W 076°34'0 0.0
2018-Apr-21 03:01N 39°16' W 076°34'0 0.0
2018-Apr-21 02:31N 39°16' W 076°34'0 0.0
2018-Apr-21 02:01N 39°16' W 076°34'0 0.0
2018-Apr-21 01:31N 39°16' W 076°34'0 0.0
2018-Apr-21 01:01N 39°16' W 076°34'0 0.0
2018-Apr-21 00:30N 39°16' W 076°34'0 0.0
2018-Apr-21 00:01N 39°16' W 076°34'1 2.4
2018-Apr-20 23:30N 39°15' W 076°33'1 2.4
2018-Apr-20 23:00N 39°16' W 076°34'0 0.0
2018-Apr-20 22:31N 39°16' W 076°34'0 0.0
2018-Apr-20 22:00N 39°16' W 076°34'0 0.0
2018-Apr-20 21:30N 39°16' W 076°34'0 0.0
2018-Apr-20 21:01N 39°16' W 076°34'0 0.0
2018-Apr-20 20:31N 39°16' W 076°34'0 0.0
2018-Apr-20 20:01N 39°16' W 076°34'0 0.0
2018-Apr-20 19:30N 39°16' W 076°34'0 0.0
2018-Apr-20 19:01N 39°16' W 076°34'0 0.0
2018-Apr-20 18:31N 39°16' W 076°34'2 4.7
2018-Apr-20 18:01N 39°14' W 076°33'2 3.0
2018-Apr-20 17:30N 39°13' W 076°35'0 0.3
2018-Apr-20 17:01N 39°13' W 076°35'1 2.2
2018-Apr-20 16:30N 39°13' W 076°33'1 2.2
2018-Apr-20 16:01N 39°14' W 076°32'0 0.6
2018-Apr-20 15:30N 39°14' W 076°32'0 0.8
2018-Apr-20 15:00N 39°15' W 076°32'1 1.5
2018-Apr-20 14:30N 39°15' W 076°32'1 3.0
2018-Apr-20 14:00N 39°14' W 076°33'2 4.7
2018-Apr-20 13:31N 39°16' W 076°34'0 0.0
2018-Apr-20 13:00N 39°16' W 076°34'0 0.0
2018-Apr-20 12:31N 39°16' W 076°34'0 0.0
2018-Apr-20 12:01N 39°16' W 076°34'1 2.5
2018-Apr-20 11:30N 39°15' W 076°33'1 2.5
2018-Apr-20 11:00N 39°14' W 076°33'1 2.4
2018-Apr-20 10:29N 39°13' W 076°32'1 1.6
2018-Apr-20 10:00N 39°14' W 076°32'2 3.3
2018-Apr-20 09:31N 39°15' W 076°34'0 0.5
2018-Apr-20 09:00N 39°15' W 076°34'1 1.8
2018-Apr-20 08:31N 39°14' W 076°33'1 1.3
2018-Apr-20 08:00N 39°14' W 076°32'0 0.0
2018-Apr-20 07:31N 39°14' W 076°32'0 0.0
2018-Apr-20 07:00N 39°14' W 076°32'0 0.0
2018-Apr-20 06:31N 39°14' W 076°32'0 0.0
2018-Apr-20 06:00N 39°14' W 076°32'0 0.0
2018-Apr-20 05:29N 39°14' W 076°32'0 0.0
2018-Apr-20 05:01N 39°14' W 076°32'0 0.0
2018-Apr-20 04:31N 39°14' W 076°32'0 0.0
2018-Apr-20 04:01N 39°14' W 076°32'0 0.0
2018-Apr-20 03:30N 39°14' W 076°32'0 0.0
2018-Apr-20 03:01N 39°14' W 076°32'0 0.0
2018-Apr-20 02:31N 39°14' W 076°32'0 0.0
2018-Apr-20 02:01N 39°14' W 076°32'0 0.3
2018-Apr-20 01:30N 39°14' W 076°32'2 4.5
2018-Apr-20 01:00N 39°16' W 076°34'0 0.0
2018-Apr-20 00:31N 39°16' W 076°34'0 0.0
2018-Apr-20 00:01N 39°16' W 076°34'0 0.0
2018-Apr-19 23:30N 39°16' W 076°34'0 0.0
2018-Apr-19 23:01N 39°16' W 076°34'0 0.0
2018-Apr-19 22:31N 39°16' W 076°34'1 2.0
2018-Apr-19 22:00N 39°15' W 076°33'0 0.8
2018-Apr-19 21:31N 39°15' W 076°33'1 2.9
2018-Apr-19 21:01N 39°14' W 076°32'0 0.5
2018-Apr-19 20:31N 39°14' W 076°33'1 1.8
2018-Apr-19 20:01N 39°15' W 076°32'2 3.7
2018-Apr-19 19:31N 39°16' W 076°34'0 0.0
2018-Apr-19 19:01N 39°16' W 076°34'0 0.0
2018-Apr-19 18:31N 39°16' W 076°34'0 0.0
2018-Apr-19 18:01N 39°16' W 076°34'1 1.0
2018-Apr-19 17:30N 39°16' W 076°35'1 1.4
2018-Apr-19 17:01N 39°17' W 076°36'1 2.7
2018-Apr-19 16:31N 39°16' W 076°34'1 2.7
2018-Apr-19 16:00N 39°17' W 076°36'1 2.5
2018-Apr-19 15:31N 39°16' W 076°34'0 0.0
2018-Apr-19 15:01N 39°16' W 076°34'0 0.0
2018-Apr-19 14:31N 39°16' W 076°34'0 0.0
2018-Apr-19 14:00N 39°16' W 076°34'0 0.0
2018-Apr-19 13:30N 39°16' W 076°34'0 0.0
2018-Apr-19 13:01N 39°16' W 076°34'1 1.8
2018-Apr-19 12:31N 39°15' W 076°34'2 3.7
2018-Apr-19 12:01N 39°13' W 076°35'1 1.3
2018-Apr-19 11:30N 39°13' W 076°34'1 2.5
2018-Apr-19 11:00N 39°14' W 076°33'1 1.8
2018-Apr-19 10:30N 39°14' W 076°32'1 1.9
2018-Apr-19 10:01N 39°13' W 076°32'2 3.0
2018-Apr-19 09:31N 39°15' W 076°33'1 2.8
2018-Apr-19 09:01N 39°16' W 076°34'0 0.0
2018-Apr-19 08:30N 39°16' W 076°34'0 0.0
2018-Apr-19 08:01N 39°16' W 076°34'0 0.0
2018-Apr-19 07:30N 39°16' W 076°34'0 0.0
2018-Apr-19 07:01N 39°16' W 076°34'0 0.0
2018-Apr-19 06:31N 39°16' W 076°34'0 0.0
2018-Apr-19 06:00N 39°16' W 076°34'0 0.0
2018-Apr-19 05:31N 39°16' W 076°34'0 0.0
2018-Apr-19 05:00N 39°16' W 076°34'0 0.0
2018-Apr-19 04:30N 39°16' W 076°34'0 0.0
2018-Apr-19 04:00N 39°16' W 076°34'0 0.0
2018-Apr-19 03:30N 39°16' W 076°34'0 0.0
2018-Apr-19 03:01N 39°16' W 076°34'1 1.7
2018-Apr-19 02:31N 39°15' W 076°34'1 1.6
2018-Apr-19 02:00N 39°15' W 076°33'0 0.2
2018-Apr-19 01:30N 39°15' W 076°33'0 0.0
2018-Apr-19 01:00N 39°15' W 076°33'1 2.4
2018-Apr-19 00:31N 39°16' W 076°34'1 2.9
2018-Apr-19 00:00N 39°15' W 076°33'1 1.7
2018-Apr-18 23:26N 39°14' W 076°33'1 2.4
2018-Apr-18 23:01N 39°15' W 076°34'1 2.2
2018-Apr-18 22:30N 39°16' W 076°34'0 0.0
2018-Apr-18 22:00N 39°16' W 076°34'0 0.0
2018-Apr-18 21:30N 39°16' W 076°34'0 0.0
2018-Apr-18 21:00N 39°16' W 076°34'0 0.0
2018-Apr-18 20:30N 39°16' W 076°34'0 0.0
2018-Apr-18 20:00N 39°16' W 076°34'0 0.0
2018-Apr-18 19:30N 39°16' W 076°34'0 0.0
2018-Apr-18 19:00N 39°16' W 076°34'0 0.0
2018-Apr-18 18:30N 39°16' W 076°34'0 0.0
2018-Apr-18 18:00N 39°16' W 076°34'0 0.0
2018-Apr-18 17:29N 39°16' W 076°34'0 0.0
2018-Apr-18 17:00N 39°16' W 076°34'0 0.0
2018-Apr-18 16:30N 39°16' W 076°34'0 0.0
2018-Apr-18 16:00N 39°16' W 076°34'0 0.0
2018-Apr-18 15:30N 39°16' W 076°34'0 0.0
2018-Apr-18 15:00N 39°16' W 076°34'0 0.0
2018-Apr-18 14:30N 39°16' W 076°34'0 0.3
2018-Apr-18 14:00N 39°16' W 076°34'1 2.2
2018-Apr-18 13:30N 39°15' W 076°34'1 2.0
2018-Apr-18 13:00N 39°16' W 076°34'0 0.0
2018-Apr-18 12:30N 39°16' W 076°34'0 0.0
2018-Apr-18 12:00N 39°16' W 076°34'0 0.0
2018-Apr-18 11:31N 39°16' W 076°34'0 0.0
2018-Apr-18 11:00N 39°16' W 076°34'2 3.8
2018-Apr-18 10:30N 39°14' W 076°33'1 1.2
2018-Apr-18 10:00N 39°15' W 076°32'0 0.3
2018-Apr-18 09:30N 39°15' W 076°32'1 2.4
2018-Apr-18 09:00N 39°15' W 076°34'0 0.0
2018-Apr-18 08:31N 39°15' W 076°34'2 4.2
2018-Apr-18 08:01N 39°13' W 076°34'0 0.7
2018-Apr-18 07:31N 39°13' W 076°35'1 1.9
2018-Apr-18 07:01N 39°13' W 076°33'2 4.8
2018-Apr-18 06:30N 39°16' W 076°34'0 0.6
2018-Apr-18 06:01N 39°16' W 076°34'0 0.0
2018-Apr-18 05:30N 39°16' W 076°34'0 0.0
2018-Apr-18 05:01N 39°16' W 076°34'1 1.2
2018-Apr-18 04:30N 39°15' W 076°34'1 1.5
2018-Apr-18 04:00N 39°15' W 076°33'0 0.4
2018-Apr-18 03:30N 39°16' W 076°33'0 0.1
2018-Apr-18 03:00N 39°16' W 076°33'2 3.6
2018-Apr-18 02:30N 39°16' W 076°36'1 2.1
2018-Apr-18 02:01N 39°16' W 076°34'0 0.0
2018-Apr-18 01:30N 39°16' W 076°34'0 0.0
2018-Apr-18 01:00N 39°16' W 076°34'0 0.0
2018-Apr-18 00:30N 39°16' W 076°34'0 0.0
2018-Apr-18 00:00N 39°16' W 076°34'0 0.0
2018-Apr-17 23:30N 39°16' W 076°34'1 2.5
2018-Apr-17 23:00N 39°15' W 076°33'1 1.0
2018-Apr-17 22:30N 39°15' W 076°33'2 3.5
2018-Apr-17 22:01N 39°13' W 076°32'1 2.5
2018-Apr-17 21:31N 39°14' W 076°32'0 0.0
2018-Apr-17 21:00N 39°14' W 076°32'1 2.9
2018-Apr-17 20:30N 39°15' W 076°33'1 0.8
2018-Apr-17 19:54N 39°15' W 076°33'1 1.3
2018-Apr-17 19:30N 39°16' W 076°33'0 0.0
2018-Apr-17 19:00N 39°16' W 076°33'0 0.1
2018-Apr-17 18:30N 39°16' W 076°33'0 0.3
2018-Apr-17 18:00N 39°15' W 076°33'2 3.2
2018-Apr-17 17:30N 39°14' W 076°32'1 1.2
2018-Apr-17 16:58N 39°15' W 076°32'0 0.1
2018-Apr-17 16:29N 39°15' W 076°32'1 2.9
2018-Apr-17 16:01N 39°15' W 076°34'1 2.4
2018-Apr-17 15:30N 39°14' W 076°33'1 2.5
2018-Apr-17 15:00N 39°13' W 076°35'2 3.3
2018-Apr-17 14:30N 39°14' W 076°33'2 4.8
2018-Apr-17 14:01N 39°16' W 076°34'0 0.0
2018-Apr-17 13:31N 39°16' W 076°34'0 0.0
2018-Apr-17 13:00N 39°16' W 076°34'0 0.0
2018-Apr-17 12:31N 39°16' W 076°34'0 0.0
2018-Apr-17 12:00N 39°16' W 076°34'0 0.0
2018-Apr-17 11:29N 39°16' W 076°34'0 0.0
2018-Apr-17 11:00N 39°16' W 076°34'0 0.0
2018-Apr-17 10:30N 39°16' W 076°34'0 0.0
2018-Apr-17 10:00N 39°16' W 076°34'1 2.6
2018-Apr-17 09:31N 39°15' W 076°33'1 2.0
2018-Apr-17 08:58N 39°14' W 076°32'1 1.8
2018-Apr-17 08:30N 39°13' W 076°32'2 3.4
2018-Apr-17 08:01N 39°15' W 076°32'0 0.0
2018-Apr-17 07:30N 39°15' W 076°32'0 0.0
2018-Apr-17 07:01N 39°15' W 076°32'0 0.0
2018-Apr-17 06:30N 39°15' W 076°32'0 0.0
2018-Apr-17 06:01N 39°15' W 076°32'0 0.0
2018-Apr-17 05:30N 39°15' W 076°32'0 0.0
2018-Apr-17 05:00N 39°15' W 076°32'0 0.0
2018-Apr-17 04:30N 39°15' W 076°32'0 0.0
2018-Apr-17 04:00N 39°15' W 076°32'0 0.4
2018-Apr-17 03:07N 39°15' W 076°32'0 0.5
2018-Apr-17 03:00N 39°15' W 076°32'0 0.4
2018-Apr-17 02:00N 39°15' W 076°32'0 0.0
2018-Apr-17 00:46N 39°15' W 076°32'0 0.5
2018-Apr-17 00:30N 39°15' W 076°32'1 2.8
2018-Apr-17 00:01N 39°15' W 076°34'1 3.0
2018-Apr-16 23:30N 39°16' W 076°35'1 2.0
2018-Apr-16 23:01N 39°16' W 076°34'0 0.0
2018-Apr-16 22:31N 39°16' W 076°34'1 2.1
2018-Apr-16 22:01N 39°15' W 076°33'1 1.2
2018-Apr-16 21:29N 39°15' W 076°33'2 4.1
2018-Apr-16 21:00N 39°13' W 076°32'0 0.9
2018-Apr-16 20:28N 39°13' W 076°32'0 0.0
2018-Apr-16 19:52N 39°13' W 076°32'1 2.5
2018-Apr-16 19:22N 39°13' W 076°34'0 0.2
2018-Apr-16 18:11N 39°14' W 076°34'0 0.0
2018-Apr-16 17:57N 39°14' W 076°34'0 0.0
2018-Apr-16 17:21N 39°14' W 076°34'2 1.1
2018-Apr-16 15:44N 39°15' W 076°32'1 1.8
2018-Apr-16 15:25N 39°15' W 076°33'1 1.6
2018-Apr-16 14:59N 39°14' W 076°33'0 0.7
2018-Apr-16 14:29N 39°15' W 076°33'0 0.7
2018-Apr-16 13:46N 39°15' W 076°33'0 0.3
2018-Apr-16 13:27N 39°15' W 076°33'0 0.2
2018-Apr-16 12:59N 39°15' W 076°33'0 0.0
2018-Apr-16 12:28N 39°15' W 076°33'0 0.0
2018-Apr-16 11:59N 39°15' W 076°33'0 0.2
2018-Apr-16 11:29N 39°15' W 076°33'0 0.0
2018-Apr-16 10:53N 39°15' W 076°33'2 1.0
2018-Apr-16 08:38N 39°13' W 076°32'311.6
2018-Apr-16 08:24N 39°15' W 076°34'1 3.1
2018-Apr-16 07:58N 39°16' W 076°36'0 0.6
2018-Apr-16 07:31N 39°15' W 076°35'1 1.8
2018-Apr-16 07:01N 39°16' W 076°35'1 1.5
2018-Apr-16 06:31N 39°16' W 076°35'1 1.4
2018-Apr-16 06:01N 39°16' W 076°35'2 3.3
2018-Apr-16 05:31N 39°15' W 076°33'1 2.8
2018-Apr-16 05:00N 39°16' W 076°34'0 0.0
2018-Apr-16 04:31N 39°16' W 076°34'0 0.0
2018-Apr-16 04:01N 39°16' W 076°34'0 0.0
2018-Apr-16 03:30N 39°16' W 076°34'0 0.0
2018-Apr-16 03:01N 39°16' W 076°34'0 0.0
2018-Apr-16 02:30N 39°16' W 076°34'0 0.0
2018-Apr-16 02:00N 39°16' W 076°34'0 0.0
2018-Apr-16 01:31N 39°16' W 076°34'0 0.0
2018-Apr-16 01:01N 39°16' W 076°34'0 0.0
2018-Apr-16 00:30N 39°16' W 076°34'0 0.0
2018-Apr-16 00:00N 39°16' W 076°34'2 3.5
2018-Apr-15 23:31N 39°15' W 076°32'0 0.1
2018-Apr-15 23:00N 39°15' W 076°32'1 2.3
2018-Apr-15 22:30N 39°15' W 076°34'2 3.5
2018-Apr-15 22:00N 39°16' W 076°36'0 0.0
2018-Apr-15 21:31N 39°16' W 076°36'1 3.0
2018-Apr-15 21:00N 39°15' W 076°34'0 0.5
2018-Apr-15 20:31N 39°15' W 076°34'1 1.7
2018-Apr-15 19:56N 39°14' W 076°33'2 3.9
2018-Apr-15 19:30N 39°16' W 076°34'0 0.0
2018-Apr-15 18:59N 39°16' W 076°34'0 0.0
2018-Apr-15 18:31N 39°16' W 076°34'0 0.0
2018-Apr-15 18:00N 39°16' W 076°34'0 0.0
2018-Apr-15 17:31N 39°16' W 076°34'0 0.0
2018-Apr-15 17:00N 39°16' W 076°34'0 0.0
2018-Apr-15 16:30N 39°16' W 076°34'0 0.0
2018-Apr-15 16:01N 39°16' W 076°34'0 0.0
2018-Apr-15 15:31N 39°16' W 076°34'0 0.0
2018-Apr-15 15:01N 39°16' W 076°34'0 0.0
2018-Apr-15 14:31N 39°16' W 076°34'0 0.0
2018-Apr-15 14:01N 39°16' W 076°34'0 0.0
2018-Apr-15 13:31N 39°16' W 076°34'0 0.0
2018-Apr-15 13:01N 39°16' W 076°34'0 0.0
2018-Apr-15 12:30N 39°16' W 076°34'0 0.0
2018-Apr-15 12:00N 39°16' W 076°34'0 0.0
2018-Apr-15 11:31N 39°16' W 076°34'0 0.0
2018-Apr-15 11:00N 39°16' W 076°34'0 0.0
2018-Apr-15 10:31N 39°16' W 076°34'2 1.6
2018-Apr-15 09:24N 39°15' W 076°32'2 3.3
2018-Apr-15 08:52N 39°13' W 076°32'0 0.2
2018-Apr-15 06:04N 39°13' W 076°32'0 7.3
2018-Apr-15 06:00N 39°13' W 076°32'3 5.7
2018-Apr-15 05:31N 39°16' W 076°34'0 0.9
2018-Apr-15 05:01N 39°16' W 076°34'0 0.0
2018-Apr-15 04:30N 39°16' W 076°34'0 0.0
2018-Apr-15 04:01N 39°16' W 076°34'0 0.0
2018-Apr-15 03:31N 39°16' W 076°34'0 0.0
2018-Apr-15 03:01N 39°16' W 076°34'1 1.6
2018-Apr-15 02:30N 39°15' W 076°33'1 1.4
2018-Apr-15 01:59N 39°15' W 076°33'2 3.6
2018-Apr-15 01:23N 39°13' W 076°34'1 0.8
2018-Apr-15 00:09N 39°14' W 076°33'1 6.1
2018-Apr-15 00:00N 39°14' W 076°33'2 3.4
2018-Apr-14 23:31N 39°16' W 076°34'0 0.0
2018-Apr-14 23:00N 39°16' W 076°34'0 0.0
2018-Apr-14 22:30N 39°16' W 076°34'0 0.0
2018-Apr-14 22:01N 39°16' W 076°34'0 0.0
2018-Apr-14 21:30N 39°16' W 076°34'0 0.0
2018-Apr-14 21:01N 39°16' W 076°34'0 0.0
2018-Apr-14 20:31N 39°16' W 076°34'0 0.0
2018-Apr-14 20:00N 39°16' W 076°34'0 0.0
2018-Apr-14 19:31N 39°16' W 076°34'0 0.0
2018-Apr-14 19:01N 39°16' W 076°34'0 0.0
2018-Apr-14 18:31N 39°16' W 076°34'0 0.0
2018-Apr-14 18:01N 39°16' W 076°34'0 0.0
2018-Apr-14 17:30N 39°16' W 076°34'0 0.0
2018-Apr-14 17:01N 39°16' W 076°34'0 0.0
2018-Apr-14 16:30N 39°16' W 076°34'0 0.0
2018-Apr-14 16:01N 39°16' W 076°34'0 0.0
2018-Apr-14 15:31N 39°16' W 076°34'0 0.0
2018-Apr-14 15:01N 39°16' W 076°34'0 0.0
2018-Apr-14 14:30N 39°16' W 076°34'0 0.0
2018-Apr-14 14:01N 39°16' W 076°34'0 0.0
2018-Apr-14 13:31N 39°16' W 076°34'0 0.0
2018-Apr-14 13:00N 39°16' W 076°34'0 0.0
2018-Apr-14 12:31N 39°16' W 076°34'0 0.0
2018-Apr-14 12:00N 39°16' W 076°34'0 0.0
2018-Apr-14 11:31N 39°16' W 076°34'0 0.0
2018-Apr-14 11:01N 39°16' W 076°34'0 0.0
2018-Apr-14 10:31N 39°16' W 076°34'2 3.1
2018-Apr-14 09:59N 39°15' W 076°32'2 3.1
2018-Apr-14 09:31N 39°14' W 076°32'1 1.1
2018-Apr-14 09:00N 39°13' W 076°32'3 4.6
2018-Apr-14 08:28N 39°15' W 076°34'1 1.5
2018-Apr-14 07:59N 39°15' W 076°33'0 0.1
2018-Apr-14 07:28N 39°15' W 076°33'0 0.0
2018-Apr-14 06:39N 39°15' W 076°33'0 0.0
2018-Apr-14 06:17N 39°15' W 076°33'0 0.5
2018-Apr-14 05:50N 39°15' W 076°33'0 0.7
2018-Apr-14 05:28N 39°15' W 076°33'2 4.5
2018-Apr-14 05:00N 39°13' W 076°32'2 4.0
2018-Apr-14 04:30N 39°15' W 076°33'1 0.8
2018-Apr-14 03:25N 39°15' W 076°32'0 0.3
2018-Apr-14 02:59N 39°15' W 076°32'2 3.8
2018-Apr-14 02:30N 39°15' W 076°35'0 0.4
2018-Apr-14 02:00N 39°15' W 076°35'1 1.7
2018-Apr-14 01:25N 39°16' W 076°34'0 0.0
2018-Apr-14 00:56N 39°16' W 076°34'0 0.0
2018-Apr-14 00:26N 39°16' W 076°34'0 0.0
2018-Apr-13 23:59N 39°16' W 076°34'0 0.0
2018-Apr-13 23:30N 39°16' W 076°34'0 0.0
2018-Apr-13 23:01N 39°16' W 076°34'0 0.0
2018-Apr-13 22:30N 39°16' W 076°34'0 0.0
2018-Apr-13 22:00N 39°16' W 076°34'1 2.1
2018-Apr-13 21:26N 39°15' W 076°33'1 2.0
2018-Apr-13 21:00N 39°14' W 076°33'0 0.8
2018-Apr-13 20:24N 39°14' W 076°32'1 1.1
2018-Apr-13 19:43N 39°15' W 076°32'2 7.3
2018-Apr-13 19:31N 39°15' W 076°34'0 0.7
2018-Apr-13 19:00N 39°15' W 076°35'2 3.9
2018-Apr-13 18:29N 39°14' W 076°33'2 4.7
2018-Apr-13 18:01N 39°16' W 076°34'0 0.0
2018-Apr-13 17:31N 39°16' W 076°34'0 0.0
2018-Apr-13 17:01N 39°16' W 076°34'0 0.0
2018-Apr-13 16:30N 39°16' W 076°34'0 0.0
2018-Apr-13 16:01N 39°16' W 076°34'0 0.0
2018-Apr-13 15:30N 39°16' W 076°34'0 0.0
2018-Apr-13 15:00N 39°16' W 076°34'0 0.0
2018-Apr-13 14:29N 39°16' W 076°34'0 0.0
2018-Apr-13 13:30N 39°16' W 076°34'0 0.0
2018-Apr-13 13:00N 39°16' W 076°34'0 0.0
2018-Apr-13 12:30N 39°16' W 076°34'0 0.0
2018-Apr-13 12:00N 39°16' W 076°34'0 0.0
2018-Apr-13 11:00N 39°16' W 076°34'0 0.0
2018-Apr-13 10:00N 39°16' W 076°34'0 0.0
2018-Apr-13 09:28N 39°16' W 076°34'0 0.0
2018-Apr-13 09:01N 39°16' W 076°34'0 0.0
2018-Apr-13 08:30N 39°16' W 076°34'0 0.0
2018-Apr-13 08:00N 39°16' W 076°34'0 0.0
2018-Apr-13 07:31N 39°16' W 076°34'0 0.0
2018-Apr-13 07:00N 39°16' W 076°34'0 0.0
2018-Apr-13 06:30N 39°16' W 076°34'1 2.7
2018-Apr-13 06:00N 39°15' W 076°34'0 0.0
2018-Apr-13 05:30N 39°15' W 076°34'0 1.0
2018-Apr-13 05:00N 39°15' W 076°33'1 1.3
2018-Apr-13 04:30N 39°14' W 076°33'2 4.3
2018-Apr-13 04:00N 39°16' W 076°34'0 0.0
2018-Apr-13 03:30N 39°16' W 076°34'  
Track history (hours):
 
Tides and Currents Weather Stations Pressure Air Temp Water Temp Dewpoint Dewpoint Depression Visibility Wind Speed Wind Dir Waves Ship Positions

April Moran

Owner: Moran Towing Corporation, New Canaan, CT. More information available from US FCC via Universal Licensing System and Coast Guard Vessel Documentation Center.

Last reported at 2018-Apr-23 03:30 UTC. Time now 2018-Apr-23 03:41 UTC.
Position N 39°16' W 076°34'.

Length 29 m; draft 3.9 m.

Type: Tug. MMSI: 367139510.

Date/timePositionNaut miles runAvg speedWind from/ knotsBaromVisibWave heightAir tempDewpointWater temp
2018-Apr-23 03:30N 39°16' W 076°34'0 0.0
2018-Apr-23 03:00N 39°16' W 076°34'0 0.0
2018-Apr-23 02:30N 39°16' W 076°34'0 0.0
2018-Apr-23 02:00N 39°16' W 076°34'0 0.0
2018-Apr-23 01:30N 39°16' W 076°34'0 0.0
2018-Apr-23 01:00N 39°16' W 076°34'0 0.0
2018-Apr-23 00:30N 39°16' W 076°34'0 0.0
2018-Apr-23 00:00N 39°16' W 076°34'0 0.0
2018-Apr-22 23:30N 39°16' W 076°34'2 4.2
2018-Apr-22 23:00N 39°15' W 076°32'2 3.8
2018-Apr-22 22:30N 39°16' W 076°34'0 0.6
2018-Apr-22 22:00N 39°16' W 076°34'0 0.0
2018-Apr-22 21:30N 39°16' W 076°34'0 0.0
2018-Apr-22 21:00N 39°16' W 076°34'0 0.0
2018-Apr-22 20:30N 39°16' W 076°34'0 0.0
2018-Apr-22 20:00N 39°16' W 076°34'0 0.0
2018-Apr-22 19:30N 39°16' W 076°34'0 0.0
2018-Apr-22 19:00N 39°16' W 076°34'0 0.0
2018-Apr-22 18:30N 39°16' W 076°34'0 0.0
2018-Apr-22 18:00N 39°16' W 076°34'0 0.0
2018-Apr-22 17:30N 39°16' W 076°34'0 0.0
2018-Apr-22 17:00N 39°16' W 076°34'0 0.0
2018-Apr-22 16:30N 39°16' W 076°34'0 0.0
2018-Apr-22 16:00N 39°16' W 076°34'0 0.0
2018-Apr-22 15:30N 39°16' W 076°34'0 0.0
2018-Apr-22 15:00N 39°16' W 076°34'2 3.1
2018-Apr-22 14:30N 39°15' W 076°33'1 2.0
2018-Apr-22 14:00N 39°15' W 076°32'0 0.8
2018-Apr-22 13:30N 39°15' W 076°32'0 0.0
2018-Apr-22 13:00N 39°15' W 076°32'0 0.0
2018-Apr-22 12:30N 39°15' W 076°32'0 0.0
2018-Apr-22 12:00N 39°15' W 076°32'0 0.0
2018-Apr-22 11:30N 39°15' W 076°32'0 0.0
2018-Apr-22 11:00N 39°15' W 076°32'1 1.4
2018-Apr-22 10:30N 39°15' W 076°31'1 1.9
2018-Apr-22 10:00N 39°14' W 076°32'1 2.6
2018-Apr-22 09:30N 39°15' W 076°34'1 2.3
2018-Apr-22 08:59N 39°15' W 076°33'0 0.6
2018-Apr-22 08:30N 39°15' W 076°32'1 3.0
2018-Apr-22 08:00N 39°13' W 076°32'0 0.7
2018-Apr-22 07:30N 39°14' W 076°32'1 2.0
2018-Apr-22 07:00N 39°15' W 076°33'0 0.9
2018-Apr-22 06:30N 39°14' W 076°32'0 0.0
2018-Apr-22 06:00N 39°14' W 076°32'0 0.0
2018-Apr-22 05:30N 39°14' W 076°32'0 0.0
2018-Apr-22 05:00N 39°14' W 076°32'0 0.0
2018-Apr-22 04:30N 39°14' W 076°32'0 0.0
2018-Apr-22 04:00N 39°14' W 076°32'0 0.0
2018-Apr-22 03:30N 39°14' W 076°32'0 0.0
2018-Apr-22 03:00N 39°14' W 076°32'2 3.2
2018-Apr-22 02:30N 39°13' W 076°32'1 1.1
2018-Apr-22 02:00N 39°13' W 076°32'3 5.5
2018-Apr-22 01:30N 39°15' W 076°34'0 0.2
2018-Apr-22 01:00N 39°15' W 076°34'0 0.0
2018-Apr-22 00:30N 39°15' W 076°34'1 2.9
2018-Apr-22 00:00N 39°16' W 076°36'0 1.0
2018-Apr-21 23:30N 39°15' W 076°35'2 4.4
2018-Apr-21 23:00N 39°14' W 076°33'0 0.7
2018-Apr-21 22:30N 39°15' W 076°32'0 0.0
2018-Apr-21 22:00N 39°15' W 076°32'0 0.0
2018-Apr-21 21:30N 39°15' W 076°32'0 0.0
2018-Apr-21 21:00N 39°15' W 076°32'0 0.3
2018-Apr-21 20:30N 39°15' W 076°32'0 0.8
2018-Apr-21 20:00N 39°15' W 076°32'2 3.5
2018-Apr-21 19:30N 39°16' W 076°34'0 0.0
2018-Apr-21 19:01N 39°16' W 076°34'0 0.0
2018-Apr-21 18:30N 39°16' W 076°34'0 0.0
2018-Apr-21 18:00N 39°16' W 076°34'0 0.0
2018-Apr-21 17:30N 39°16' W 076°34'0 0.0
2018-Apr-21 17:00N 39°16' W 076°34'0 0.0
2018-Apr-21 16:30N 39°16' W 076°34'0 0.0
2018-Apr-21 16:00N 39°16' W 076°34'0 0.0
2018-Apr-21 15:30N 39°16' W 076°34'0 0.0
2018-Apr-21 15:00N 39°16' W 076°34'0 0.0
2018-Apr-21 14:30N 39°16' W 076°34'0 0.0
2018-Apr-21 14:01N 39°16' W 076°34'0 0.0
2018-Apr-21 13:30N 39°16' W 076°34'0 0.0
2018-Apr-21 13:00N 39°16' W 076°34'0 0.0
2018-Apr-21 12:31N 39°16' W 076°34'0 0.0
2018-Apr-21 12:00N 39°16' W 076°34'0 0.0
2018-Apr-21 11:30N 39°16' W 076°34'0 0.0
2018-Apr-21 11:00N 39°16' W 076°34'0 0.0
2018-Apr-21 10:30N 39°16' W 076°34'1 1.1
2018-Apr-21 10:01N 39°15' W 076°34'0 0.3
2018-Apr-21 09:31N 39°15' W 076°34'0 0.3
2018-Apr-21 09:01N 39°15' W 076°34'0 0.0
2018-Apr-21 08:31N 39°15' W 076°34'0 0.0
2018-Apr-21 08:01N 39°15' W 076°34'0 0.0
2018-Apr-21 07:31N 39°15' W 076°34'0 0.0
2018-Apr-21 07:01N 39°15' W 076°34'0 0.9
2018-Apr-21 06:31N 39°15' W 076°34'1 1.3
2018-Apr-21 06:00N 39°15' W 076°33'1 2.6
2018-Apr-21 05:31N 39°16' W 076°34'0 0.0
2018-Apr-21 05:01N 39°16' W 076°34'0 0.0
2018-Apr-21 04:30N 39°16' W 076°34'0 0.0
2018-Apr-21 04:00N 39°16' W 076°34'0 0.0
2018-Apr-21 03:31N 39°16' W 076°34'0 0.0
2018-Apr-21 03:01N 39°16' W 076°34'0 0.0
2018-Apr-21 02:31N 39°16' W 076°34'0 0.0
2018-Apr-21 02:01N 39°16' W 076°34'0 0.0
2018-Apr-21 01:31N 39°16' W 076°34'0 0.0
2018-Apr-21 01:01N 39°16' W 076°34'0 0.0
2018-Apr-21 00:30N 39°16' W 076°34'0 0.0
2018-Apr-21 00:01N 39°16' W 076°34'1 2.4
2018-Apr-20 23:30N 39°15' W 076°33'1 2.4
2018-Apr-20 23:00N 39°16' W 076°34'0 0.0
2018-Apr-20 22:31N 39°16' W 076°34'0 0.0
2018-Apr-20 22:00N 39°16' W 076°34'0 0.0
2018-Apr-20 21:30N 39°16' W 076°34'0 0.0
2018-Apr-20 21:01N 39°16' W 076°34'0 0.0
2018-Apr-20 20:31N 39°16' W 076°34'0 0.0
2018-Apr-20 20:01N 39°16' W 076°34'0 0.0
2018-Apr-20 19:30N 39°16' W 076°34'0 0.0
2018-Apr-20 19:01N 39°16' W 076°34'0 0.0
2018-Apr-20 18:31N 39°16' W 076°34'2 4.7
2018-Apr-20 18:01N 39°14' W 076°33'2 3.0
2018-Apr-20 17:30N 39°13' W 076°35'0 0.3
2018-Apr-20 17:01N 39°13' W 076°35'1 2.2
2018-Apr-20 16:30N 39°13' W 076°33'1 2.2
2018-Apr-20 16:01N 39°14' W 076°32'0 0.6
2018-Apr-20 15:30N 39°14' W 076°32'0 0.8
2018-Apr-20 15:00N 39°15' W 076°32'1 1.5
2018-Apr-20 14:30N 39°15' W 076°32'1 3.0
2018-Apr-20 14:00N 39°14' W 076°33'2 4.7
2018-Apr-20 13:31N 39°16' W 076°34'0 0.0
2018-Apr-20 13:00N 39°16' W 076°34'0 0.0
2018-Apr-20 12:31N 39°16' W 076°34'0 0.0
2018-Apr-20 12:01N 39°16' W 076°34'1 2.5
2018-Apr-20 11:30N 39°15' W 076°33'1 2.5
2018-Apr-20 11:00N 39°14' W 076°33'1 2.4
2018-Apr-20 10:29N 39°13' W 076°32'1 1.6
2018-Apr-20 10:00N 39°14' W 076°32'2 3.3
2018-Apr-20 09:31N 39°15' W 076°34'0 0.5
2018-Apr-20 09:00N 39°15' W 076°34'1 1.8
2018-Apr-20 08:31N 39°14' W 076°33'1 1.3
2018-Apr-20 08:00N 39°14' W 076°32'0 0.0
2018-Apr-20 07:31N 39°14' W 076°32'0 0.0
2018-Apr-20 07:00N 39°14' W 076°32'0 0.0
2018-Apr-20 06:31N 39°14' W 076°32'0 0.0
2018-Apr-20 06:00N 39°14' W 076°32'0 0.0
2018-Apr-20 05:29N 39°14' W 076°32'0 0.0
2018-Apr-20 05:01N 39°14' W 076°32'0 0.0
2018-Apr-20 04:31N 39°14' W 076°32'0 0.0
2018-Apr-20 04:01N 39°14' W 076°32'0 0.0
2018-Apr-20 03:30N 39°14' W 076°32'0 0.0
2018-Apr-20 03:01N 39°14' W 076°32'0 0.0
2018-Apr-20 02:31N 39°14' W 076°32'0 0.0
2018-Apr-20 02:01N 39°14' W 076°32'0 0.3
2018-Apr-20 01:30N 39°14' W 076°32'2 4.5
2018-Apr-20 01:00N 39°16' W 076°34'0 0.0
2018-Apr-20 00:31N 39°16' W 076°34'0 0.0
2018-Apr-20 00:01N 39°16' W 076°34'0 0.0
2018-Apr-19 23:30N 39°16' W 076°34'0 0.0
2018-Apr-19 23:01N 39°16' W 076°34'0 0.0
2018-Apr-19 22:31N 39°16' W 076°34'1 2.0
2018-Apr-19 22:00N 39°15' W 076°33'0 0.8
2018-Apr-19 21:31N 39°15' W 076°33'1 2.9
2018-Apr-19 21:01N 39°14' W 076°32'0 0.5
2018-Apr-19 20:31N 39°14' W 076°33'1 1.8
2018-Apr-19 20:01N 39°15' W 076°32'2 3.7
2018-Apr-19 19:31N 39°16' W 076°34'0 0.0
2018-Apr-19 19:01N 39°16' W 076°34'0 0.0
2018-Apr-19 18:31N 39°16' W 076°34'0 0.0
2018-Apr-19 18:01N 39°16' W 076°34'1 1.0
2018-Apr-19 17:30N 39°16' W 076°35'1 1.4
2018-Apr-19 17:01N 39°17' W 076°36'1 2.7
2018-Apr-19 16:31N 39°16' W 076°34'1 2.7
2018-Apr-19 16:00N 39°17' W 076°36'1 2.5
2018-Apr-19 15:31N 39°16' W 076°34'0 0.0
2018-Apr-19 15:01N 39°16' W 076°34'0 0.0
2018-Apr-19 14:31N 39°16' W 076°34'0 0.0
2018-Apr-19 14:00N 39°16' W 076°34'0 0.0
2018-Apr-19 13:30N 39°16' W 076°34'0 0.0
2018-Apr-19 13:01N 39°16' W 076°34'1 1.8
2018-Apr-19 12:31N 39°15' W 076°34'2 3.7
2018-Apr-19 12:01N 39°13' W 076°35'1 1.3
2018-Apr-19 11:30N 39°13' W 076°34'1 2.5
2018-Apr-19 11:00N 39°14' W 076°33'1 1.8
2018-Apr-19 10:30N 39°14' W 076°32'1 1.9
2018-Apr-19 10:01N 39°13' W 076°32'2 3.0
2018-Apr-19 09:31N 39°15' W 076°33'1 2.8
2018-Apr-19 09:01N 39°16' W 076°34'0 0.0
2018-Apr-19 08:30N 39°16' W 076°34'0 0.0
2018-Apr-19 08:01N 39°16' W 076°34'0 0.0
2018-Apr-19 07:30N 39°16' W 076°34'0 0.0
2018-Apr-19 07:01N 39°16' W 076°34'0 0.0
2018-Apr-19 06:31N 39°16' W 076°34'0 0.0
2018-Apr-19 06:00N 39°16' W 076°34'0 0.0
2018-Apr-19 05:31N 39°16' W 076°34'0 0.0
2018-Apr-19 05:00N 39°16' W 076°34'0 0.0
2018-Apr-19 04:30N 39°16' W 076°34'0 0.0
2018-Apr-19 04:00N 39°16' W 076°34'0 0.0
2018-Apr-19 03:30N 39°16' W 076°34'0 0.0
2018-Apr-19 03:01N 39°16' W 076°34'1 1.7
2018-Apr-19 02:31N 39°15' W 076°34'1 1.6
2018-Apr-19 02:00N 39°15' W 076°33'0 0.2
2018-Apr-19 01:30N 39°15' W 076°33'0 0.0
2018-Apr-19 01:00N 39°15' W 076°33'1 2.4
2018-Apr-19 00:31N 39°16' W 076°34'1 2.9
2018-Apr-19 00:00N 39°15' W 076°33'1 1.7
2018-Apr-18 23:26N 39°14' W 076°33'1 2.4
2018-Apr-18 23:01N 39°15' W 076°34'1 2.2
2018-Apr-18 22:30N 39°16' W 076°34'0 0.0
2018-Apr-18 22:00N 39°16' W 076°34'0 0.0
2018-Apr-18 21:30N 39°16' W 076°34'0 0.0
2018-Apr-18 21:00N 39°16' W 076°34'0 0.0
2018-Apr-18 20:30N 39°16' W 076°34'0 0.0
2018-Apr-18 20:00N 39°16' W 076°34'0 0.0
2018-Apr-18 19:30N 39°16' W 076°34'0 0.0
2018-Apr-18 19:00N 39°16' W 076°34'0 0.0
2018-Apr-18 18:30N 39°16' W 076°34'0 0.0
2018-Apr-18 18:00N 39°16' W 076°34'0 0.0
2018-Apr-18 17:29N 39°16' W 076°34'0 0.0
2018-Apr-18 17:00N 39°16' W 076°34'0 0.0
2018-Apr-18 16:30N 39°16' W 076°34'0 0.0
2018-Apr-18 16:00N 39°16' W 076°34'0 0.0
2018-Apr-18 15:30N 39°16' W 076°34'0 0.0
2018-Apr-18 15:00N 39°16' W 076°34'0 0.0
2018-Apr-18 14:30N 39°16' W 076°34'0 0.3
2018-Apr-18 14:00N 39°16' W 076°34'1 2.2
2018-Apr-18 13:30N 39°15' W 076°34'1 2.0
2018-Apr-18 13:00N 39°16' W 076°34'0 0.0
2018-Apr-18 12:30N 39°16' W 076°34'0 0.0
2018-Apr-18 12:00N 39°16' W 076°34'0 0.0
2018-Apr-18 11:31N 39°16' W 076°34'0 0.0
2018-Apr-18 11:00N 39°16' W 076°34'2 3.8
2018-Apr-18 10:30N 39°14' W 076°33'1 1.2
2018-Apr-18 10:00N 39°15' W 076°32'0 0.3
2018-Apr-18 09:30N 39°15' W 076°32'1 2.4
2018-Apr-18 09:00N 39°15' W 076°34'0 0.0
2018-Apr-18 08:31N 39°15' W 076°34'2 4.2
2018-Apr-18 08:01N 39°13' W 076°34'0 0.7
2018-Apr-18 07:31N 39°13' W 076°35'1 1.9
2018-Apr-18 07:01N 39°13' W 076°33'2 4.8
2018-Apr-18 06:30N 39°16' W 076°34'0 0.6
2018-Apr-18 06:01N 39°16' W 076°34'0 0.0
2018-Apr-18 05:30N 39°16' W 076°34'0 0.0
2018-Apr-18 05:01N 39°16' W 076°34'1 1.2
2018-Apr-18 04:30N 39°15' W 076°34'1 1.5
2018-Apr-18 04:00N 39°15' W 076°33'0 0.4
2018-Apr-18 03:30N 39°16' W 076°33'0 0.1
2018-Apr-18 03:00N 39°16' W 076°33'2 3.6
2018-Apr-18 02:30N 39°16' W 076°36'1 2.1
2018-Apr-18 02:01N 39°16' W 076°34'0 0.0
2018-Apr-18 01:30N 39°16' W 076°34'0 0.0
2018-Apr-18 01:00N 39°16' W 076°34'0 0.0
2018-Apr-18 00:30N 39°16' W 076°34'0 0.0
2018-Apr-18 00:00N 39°16' W 076°34'0 0.0
2018-Apr-17 23:30N 39°16' W 076°34'1 2.5
2018-Apr-17 23:00N 39°15' W 076°33'1 1.0
2018-Apr-17 22:30N 39°15' W 076°33'2 3.5
2018-Apr-17 22:01N 39°13' W 076°32'1 2.5
2018-Apr-17 21:31N 39°14' W 076°32'0 0.0
2018-Apr-17 21:00N 39°14' W 076°32'1 2.9
2018-Apr-17 20:30N 39°15' W 076°33'1 0.8
2018-Apr-17 19:54N 39°15' W 076°33'1 1.3
2018-Apr-17 19:30N 39°16' W 076°33'0 0.0
2018-Apr-17 19:00N 39°16' W 076°33'0 0.1
2018-Apr-17 18:30N 39°16' W 076°33'0 0.3
2018-Apr-17 18:00N 39°15' W 076°33'2 3.2
2018-Apr-17 17:30N 39°14' W 076°32'1 1.2
2018-Apr-17 16:58N 39°15' W 076°32'0 0.1
2018-Apr-17 16:29N 39°15' W 076°32'1 2.9
2018-Apr-17 16:01N 39°15' W 076°34'1 2.4
2018-Apr-17 15:30N 39°14' W 076°33'1 2.5
2018-Apr-17 15:00N 39°13' W 076°35'2 3.3
2018-Apr-17 14:30N 39°14' W 076°33'2 4.8
2018-Apr-17 14:01N 39°16' W 076°34'0 0.0
2018-Apr-17 13:31N 39°16' W 076°34'0 0.0
2018-Apr-17 13:00N 39°16' W 076°34'0 0.0
2018-Apr-17 12:31N 39°16' W 076°34'0 0.0
2018-Apr-17 12:00N 39°16' W 076°34'0 0.0
2018-Apr-17 11:29N 39°16' W 076°34'0 0.0
2018-Apr-17 11:00N 39°16' W 076°34'0 0.0
2018-Apr-17 10:30N 39°16' W 076°34'0 0.0
2018-Apr-17 10:00N 39°16' W 076°34'1 2.6
2018-Apr-17 09:31N 39°15' W 076°33'1 2.0
2018-Apr-17 08:58N 39°14' W 076°32'1 1.8
2018-Apr-17 08:30N 39°13' W 076°32'2 3.4
2018-Apr-17 08:01N 39°15' W 076°32'0 0.0
2018-Apr-17 07:30N 39°15' W 076°32'0 0.0
2018-Apr-17 07:01N 39°15' W 076°32'0 0.0
2018-Apr-17 06:30N 39°15' W 076°32'0 0.0
2018-Apr-17 06:01N 39°15' W 076°32'0 0.0
2018-Apr-17 05:30N 39°15' W 076°32'0 0.0
2018-Apr-17 05:00N 39°15' W 076°32'0 0.0
2018-Apr-17 04:30N 39°15' W 076°32'0 0.0
2018-Apr-17 04:00N 39°15' W 076°32'0 0.4
2018-Apr-17 03:07N 39°15' W 076°32'0 0.5
2018-Apr-17 03:00N 39°15' W 076°32'0 0.4
2018-Apr-17 02:00N 39°15' W 076°32'0 0.0
2018-Apr-17 00:46N 39°15' W 076°32'0 0.5
2018-Apr-17 00:30N 39°15' W 076°32'1 2.8
2018-Apr-17 00:01N 39°15' W 076°34'1 3.0
2018-Apr-16 23:30N 39°16' W 076°35'1 2.0
2018-Apr-16 23:01N 39°16' W 076°34'0 0.0
2018-Apr-16 22:31N 39°16' W 076°34'1 2.1
2018-Apr-16 22:01N 39°15' W 076°33'1 1.2
2018-Apr-16 21:29N 39°15' W 076°33'2 4.1
2018-Apr-16 21:00N 39°13' W 076°32'0 0.9
2018-Apr-16 20:28N 39°13' W 076°32'0 0.0
2018-Apr-16 19:52N 39°13' W 076°32'1 2.5
2018-Apr-16 19:22N 39°13' W 076°34'0 0.2
2018-Apr-16 18:11N 39°14' W 076°34'0 0.0
2018-Apr-16 17:57N 39°14' W 076°34'0 0.0
2018-Apr-16 17:21N 39°14' W 076°34'2 1.1
2018-Apr-16 15:44N 39°15' W 076°32'1 1.8
2018-Apr-16 15:25N 39°15' W 076°33'1 1.6
2018-Apr-16 14:59N 39°14' W 076°33'0 0.7
2018-Apr-16 14:29N 39°15' W 076°33'0 0.7
2018-Apr-16 13:46N 39°15' W 076°33'0 0.3
2018-Apr-16 13:27N 39°15' W 076°33'0 0.2
2018-Apr-16 12:59N 39°15' W 076°33'0 0.0
2018-Apr-16 12:28N 39°15' W 076°33'0 0.0
2018-Apr-16 11:59N 39°15' W 076°33'0 0.2
2018-Apr-16 11:29N 39°15' W 076°33'0 0.0
2018-Apr-16 10:53N 39°15' W 076°33'2 1.0
2018-Apr-16 08:38N 39°13' W 076°32'311.6
2018-Apr-16 08:24N 39°15' W 076°34'1 3.1
2018-Apr-16 07:58N 39°16' W 076°36'0 0.6
2018-Apr-16 07:31N 39°15' W 076°35'1 1.8
2018-Apr-16 07:01N 39°16' W 076°35'1 1.5
2018-Apr-16 06:31N 39°16' W 076°35'1 1.4
2018-Apr-16 06:01N 39°16' W 076°35'2 3.3
2018-Apr-16 05:31N 39°15' W 076°33'1 2.8
2018-Apr-16 05:00N 39°16' W 076°34'0 0.0
2018-Apr-16 04:31N 39°16' W 076°34'0 0.0
2018-Apr-16 04:01N 39°16' W 076°34'0 0.0
2018-Apr-16 03:30N 39°16' W 076°34'0 0.0
2018-Apr-16 03:01N 39°16' W 076°34'0 0.0
2018-Apr-16 02:30N 39°16' W 076°34'0 0.0
2018-Apr-16 02:00N 39°16' W 076°34'0 0.0
2018-Apr-16 01:31N 39°16' W 076°34'0 0.0
2018-Apr-16 01:01N 39°16' W 076°34'0 0.0
2018-Apr-16 00:30N 39°16' W 076°34'0 0.0
2018-Apr-16 00:00N 39°16' W 076°34'2 3.5
2018-Apr-15 23:31N 39°15' W 076°32'0 0.1
2018-Apr-15 23:00N 39°15' W 076°32'1 2.3
2018-Apr-15 22:30N 39°15' W 076°34'2 3.5
2018-Apr-15 22:00N 39°16' W 076°36'0 0.0
2018-Apr-15 21:31N 39°16' W 076°36'1 3.0
2018-Apr-15 21:00N 39°15' W 076°34'0 0.5
2018-Apr-15 20:31N 39°15' W 076°34'1 1.7
2018-Apr-15 19:56N 39°14' W 076°33'2 3.9
2018-Apr-15 19:30N 39°16' W 076°34'0 0.0
2018-Apr-15 18:59N 39°16' W 076°34'0 0.0
2018-Apr-15 18:31N 39°16' W 076°34'0 0.0
2018-Apr-15 18:00N 39°16' W 076°34'0 0.0
2018-Apr-15 17:31N 39°16' W 076°34'0 0.0
2018-Apr-15 17:00N 39°16' W 076°34'0 0.0
2018-Apr-15 16:30N 39°16' W 076°34'0 0.0
2018-Apr-15 16:01N 39°16' W 076°34'0 0.0
2018-Apr-15 15:31N 39°16' W 076°34'0 0.0
2018-Apr-15 15:01N 39°16' W 076°34'0 0.0
2018-Apr-15 14:31N 39°16' W 076°34'0 0.0
2018-Apr-15 14:01N 39°16' W 076°34'0 0.0
2018-Apr-15 13:31N 39°16' W 076°34'0 0.0
2018-Apr-15 13:01N 39°16' W 076°34'0 0.0
2018-Apr-15 12:30N 39°16' W 076°34'0 0.0
2018-Apr-15 12:00N 39°16' W 076°34'0 0.0
2018-Apr-15 11:31N 39°16' W 076°34'0 0.0
2018-Apr-15 11:00N 39°16' W 076°34'0 0.0
2018-Apr-15 10:31N 39°16' W 076°34'2 1.6
2018-Apr-15 09:24N 39°15' W 076°32'2 3.3
2018-Apr-15 08:52N 39°13' W 076°32'0 0.2
2018-Apr-15 06:04N 39°13' W 076°32'0 7.3
2018-Apr-15 06:00N 39°13' W 076°32'3 5.7
2018-Apr-15 05:31N 39°16' W 076°34'0 0.9
2018-Apr-15 05:01N 39°16' W 076°34'0 0.0
2018-Apr-15 04:30N 39°16' W 076°34'0 0.0
2018-Apr-15 04:01N 39°16' W 076°34'0 0.0
2018-Apr-15 03:31N 39°16' W 076°34'0 0.0
2018-Apr-15 03:01N 39°16' W 076°34'1 1.6
2018-Apr-15 02:30N 39°15' W 076°33'1 1.4
2018-Apr-15 01:59N 39°15' W 076°33'2 3.6
2018-Apr-15 01:23N 39°13' W 076°34'1 0.8
2018-Apr-15 00:09N 39°14' W 076°33'1 6.1
2018-Apr-15 00:00N 39°14' W 076°33'2 3.4
2018-Apr-14 23:31N 39°16' W 076°34'0 0.0
2018-Apr-14 23:00N 39°16' W 076°34'0 0.0
2018-Apr-14 22:30N 39°16' W 076°34'0 0.0
2018-Apr-14 22:01N 39°16' W 076°34'0 0.0
2018-Apr-14 21:30N 39°16' W 076°34'0 0.0
2018-Apr-14 21:01N 39°16' W 076°34'0 0.0
2018-Apr-14 20:31N 39°16' W 076°34'0 0.0
2018-Apr-14 20:00N 39°16' W 076°34'0 0.0
2018-Apr-14 19:31N 39°16' W 076°34'0 0.0
2018-Apr-14 19:01N 39°16' W 076°34'0 0.0
2018-Apr-14 18:31N 39°16' W 076°34'0 0.0
2018-Apr-14 18:01N 39°16' W 076°34'0 0.0
2018-Apr-14 17:30N 39°16' W 076°34'0 0.0
2018-Apr-14 17:01N 39°16' W 076°34'0 0.0
2018-Apr-14 16:30N 39°16' W 076°34'0 0.0
2018-Apr-14 16:01N 39°16' W 076°34'0 0.0
2018-Apr-14 15:31N 39°16' W 076°34'0 0.0
2018-Apr-14 15:01N 39°16' W 076°34'0 0.0
2018-Apr-14 14:30N 39°16' W 076°34'0 0.0
2018-Apr-14 14:01N 39°16' W 076°34'0 0.0
2018-Apr-14 13:31N 39°16' W 076°34'0 0.0
2018-Apr-14 13:00N 39°16' W 076°34'0 0.0
2018-Apr-14 12:31N 39°16' W 076°34'0 0.0
2018-Apr-14 12:00N 39°16' W 076°34'0 0.0
2018-Apr-14 11:31N 39°16' W 076°34'0 0.0
2018-Apr-14 11:01N 39°16' W 076°34'0 0.0
2018-Apr-14 10:31N 39°16' W 076°34'2 3.1
2018-Apr-14 09:59N 39°15' W 076°32'2 3.1
2018-Apr-14 09:31N 39°14' W 076°32'1 1.1
2018-Apr-14 09:00N 39°13' W 076°32'3 4.6
2018-Apr-14 08:28N 39°15' W 076°34'1 1.5
2018-Apr-14 07:59N 39°15' W 076°33'0 0.1
2018-Apr-14 07:28N 39°15' W 076°33'0 0.0
2018-Apr-14 06:39N 39°15' W 076°33'0 0.0
2018-Apr-14 06:17N 39°15' W 076°33'0 0.5
2018-Apr-14 05:50N 39°15' W 076°33'0 0.7
2018-Apr-14 05:28N 39°15' W 076°33'2 4.5
2018-Apr-14 05:00N 39°13' W 076°32'2 4.0
2018-Apr-14 04:30N 39°15' W 076°33'1 0.8
2018-Apr-14 03:25N 39°15' W 076°32'0 0.3
2018-Apr-14 02:59N 39°15' W 076°32'2 3.8
2018-Apr-14 02:30N 39°15' W 076°35'0 0.4
2018-Apr-14 02:00N 39°15' W 076°35'1 1.7
2018-Apr-14 01:25N 39°16' W 076°34'0 0.0
2018-Apr-14 00:56N 39°16' W 076°34'0 0.0
2018-Apr-14 00:26N 39°16' W 076°34'0 0.0
2018-Apr-13 23:59N 39°16' W 076°34'0 0.0
2018-Apr-13 23:30N 39°16' W 076°34'0 0.0
2018-Apr-13 23:01N 39°16' W 076°34'0 0.0
2018-Apr-13 22:30N 39°16' W 076°34'0 0.0
2018-Apr-13 22:00N 39°16' W 076°34'1 2.1
2018-Apr-13 21:26N 39°15' W 076°33'1 2.0
2018-Apr-13 21:00N 39°14' W 076°33'0 0.8
2018-Apr-13 20:24N 39°14' W 076°32'1 1.1
2018-Apr-13 19:43N 39°15' W 076°32'2 7.3
2018-Apr-13 19:31N 39°15' W 076°34'0 0.7
2018-Apr-13 19:00N 39°15' W 076°35'2 3.9
2018-Apr-13 18:29N 39°14' W 076°33'2 4.7
2018-Apr-13 18:01N 39°16' W 076°34'0 0.0
2018-Apr-13 17:31N 39°16' W 076°34'0 0.0
2018-Apr-13 17:01N 39°16' W 076°34'0 0.0
2018-Apr-13 16:30N 39°16' W 076°34'0 0.0
2018-Apr-13 16:01N 39°16' W 076°34'0 0.0
2018-Apr-13 15:30N 39°16' W 076°34'0 0.0
2018-Apr-13 15:00N 39°16' W 076°34'0 0.0
2018-Apr-13 14:29N 39°16' W 076°34'0 0.0
2018-Apr-13 13:30N 39°16' W 076°34'0 0.0
2018-Apr-13 13:00N 39°16' W 076°34'0 0.0
2018-Apr-13 12:30N 39°16' W 076°34'0 0.0
2018-Apr-13 12:00N 39°16' W 076°34'0 0.0
2018-Apr-13 11:00N 39°16' W 076°34'0 0.0
2018-Apr-13 10:00N 39°16' W 076°34'0 0.0
2018-Apr-13 09:28N 39°16' W 076°34'0 0.0
2018-Apr-13 09:01N 39°16' W 076°34'0 0.0
2018-Apr-13 08:30N 39°16' W 076°34'0 0.0
2018-Apr-13 08:00N 39°16' W 076°34'0 0.0
2018-Apr-13 07:31N 39°16' W 076°34'0 0.0
2018-Apr-13 07:00N 39°16' W 076°34'0 0.0
2018-Apr-13 06:30N 39°16' W 076°34'1 2.7
2018-Apr-13 06:00N 39°15' W 076°34'0 0.0
2018-Apr-13 05:30N 39°15' W 076°34'0 1.0
2018-Apr-13 05:00N 39°15' W 076°33'1 1.3
2018-Apr-13 04:30N 39°14' W 076°33'2 4.3
2018-Apr-13 04:00N 39°16' W 076°34'0 0.0
2018-Apr-13 03:30N 39°16' W 076°34'  

Dump ship's entire track history